sensor_id;sensor_type;location;lat;lon;timestamp;pressure;altitude;pressure_sealevel;temperature;humidity
55418;BME280;41287;47.554;7.844;2022-12-07T00:00:53;98071.34;;;16.24;65.41
55418;BME280;41287;47.554;7.844;2022-12-07T00:03:18;98069.78;;;16.23;65.52
55418;BME280;41287;47.554;7.844;2022-12-07T00:05:44;98067.09;;;16.23;65.36
55418;BME280;41287;47.554;7.844;2022-12-07T00:08:09;98065.19;;;16.24;65.53
55418;BME280;41287;47.554;7.844;2022-12-07T00:10:34;98059.75;;;16.24;65.42
55418;BME280;41287;47.554;7.844;2022-12-07T00:13:00;98062.47;;;16.24;65.50
55418;BME280;41287;47.554;7.844;2022-12-07T00:15:25;98069.78;;;16.23;65.52
55418;BME280;41287;47.554;7.844;2022-12-07T00:17:51;98063.25;;;16.24;65.41
55418;BME280;41287;47.554;7.844;2022-12-07T00:20:16;98064.38;;;16.23;65.40
55418;BME280;41287;47.554;7.844;2022-12-07T00:22:41;98062.47;;;16.24;65.50
55418;BME280;41287;47.554;7.844;2022-12-07T00:25:07;98067.09;;;16.23;65.35
55418;BME280;41287;47.554;7.844;2022-12-07T00:27:32;98065.19;;;16.24;65.40
55418;BME280;41287;47.554;7.844;2022-12-07T00:29:57;98054.34;;;16.24;65.45
55418;BME280;41287;47.554;7.844;2022-12-07T00:32:23;98056.28;;;16.23;65.37
55418;BME280;41287;47.554;7.844;2022-12-07T00:34:48;98050.88;;;16.23;65.44
55418;BME280;41287;47.554;7.844;2022-12-07T00:37:13;98050.88;;;16.23;65.50
55418;BME280;41287;47.554;7.844;2022-12-07T00:39:39;98048.94;;;16.24;65.38
55418;BME280;41287;47.554;7.844;2022-12-07T00:42:04;98051.66;;;16.24;65.52
55418;BME280;41287;47.554;7.844;2022-12-07T00:44:29;98056.28;;;16.23;65.35
55418;BME280;41287;47.554;7.844;2022-12-07T00:46:55;98053.56;;;16.23;65.37
55418;BME280;41287;47.554;7.844;2022-12-07T00:49:21;98047.34;;;16.23;65.48
55418;BME280;41287;47.554;7.844;2022-12-07T00:51:49;98052.75;;;16.23;65.33
55418;BME280;41287;47.554;7.844;2022-12-07T00:54:14;98042.75;;;16.23;65.42
55418;BME280;41287;47.554;7.844;2022-12-07T00:56:39;98040.84;;;16.24;65.38
55418;BME280;41287;47.554;7.844;2022-12-07T00:59:05;98045.44;;;16.23;65.44
55418;BME280;41287;47.554;7.844;2022-12-07T01:01:33;98040.03;;;16.23;65.56
55418;BME280;41287;47.554;7.844;2022-12-07T01:03:59;98041.59;;;16.24;65.37
55418;BME280;41287;47.554;7.844;2022-12-07T01:06:27;98040.84;;;16.24;65.37
55418;BME280;41287;47.554;7.844;2022-12-07T01:08:53;98047.81;;;16.25;65.47
55418;BME280;41287;47.554;7.844;2022-12-07T01:11:21;98048.16;;;16.23;65.45
55418;BME280;41287;47.554;7.844;2022-12-07T01:13:50;98048.16;;;16.23;65.43
55418;BME280;41287;47.554;7.844;2022-12-07T01:16:16;98044.66;;;16.23;65.39
55418;BME280;41287;47.554;7.844;2022-12-07T01:18:49;98051.97;;;16.22;65.51
55418;BME280;41287;47.554;7.844;2022-12-07T01:21:17;98044.66;;;16.23;65.50
55418;BME280;41287;47.554;7.844;2022-12-07T01:23:43;98035.75;;;16.22;65.21
55418;BME280;41287;47.554;7.844;2022-12-07T01:26:14;98046.56;;;16.22;65.37
55418;BME280;41287;47.554;7.844;2022-12-07T01:28:40;98047.34;;;16.23;65.46
55418;BME280;41287;47.554;7.844;2022-12-07T01:31:08;98046.56;;;16.22;65.40
55418;BME280;41287;47.554;7.844;2022-12-07T01:33:36;98044.66;;;16.23;65.53
55418;BME280;41287;47.554;7.844;2022-12-07T01:36:03;98048.94;;;16.24;65.50
55418;BME280;41287;47.554;7.844;2022-12-07T01:38:30;98050.88;;;16.23;65.39
55418;BME280;41287;47.554;7.844;2022-12-07T01:40:56;98053.56;;;16.23;65.37
55418;BME280;41287;47.554;7.844;2022-12-07T01:43:25;98052.75;;;16.23;65.59
55418;BME280;41287;47.554;7.844;2022-12-07T01:45:51;98046.56;;;16.22;65.47
55418;BME280;41287;47.554;7.844;2022-12-07T01:48:18;98052.75;;;16.23;65.56
55418;BME280;41287;47.554;7.844;2022-12-07T01:50:48;98048.16;;;16.23;65.53
55418;BME280;41287;47.554;7.844;2022-12-07T01:53:16;98047.34;;;16.23;65.52
55418;BME280;41287;47.554;7.844;2022-12-07T01:55:46;98050.06;;;16.23;65.37
55418;BME280;41287;47.554;7.844;2022-12-07T01:58:13;98052.75;;;16.23;65.42
55418;BME280;41287;47.554;7.844;2022-12-07T02:00:40;98049.25;;;16.22;65.54
55418;BME280;41287;47.554;7.844;2022-12-07T02:03:10;98056.56;;;16.22;65.53
55418;BME280;41287;47.554;7.844;2022-12-07T02:05:38;98057.38;;;16.22;65.53
55418;BME280;41287;47.554;7.844;2022-12-07T02:08:05;98063.25;;;16.24;65.52
55418;BME280;41287;47.554;7.844;2022-12-07T02:10:32;98055.47;;;16.23;65.53
55418;BME280;41287;47.554;7.844;2022-12-07T02:13:04;98062.78;;;16.22;65.60
55418;BME280;41287;47.554;7.844;2022-12-07T02:18:26;98059.75;;;16.24;65.38
55418;BME280;41287;47.554;7.844;2022-12-07T02:21:02;98054.66;;;16.22;65.38
55418;BME280;41287;47.554;7.844;2022-12-07T02:29:35;98042.25;;;16.21;65.50
55418;BME280;41287;47.554;7.844;2022-12-07T02:32:12;98049.56;;;16.20;65.43
55418;BME280;41287;47.554;7.844;2022-12-07T02:35:01;98043.38;;;16.20;65.53
55418;BME280;41287;47.554;7.844;2022-12-07T02:40:48;98032.56;;;16.20;65.53
55418;BME280;41287;47.554;7.844;2022-12-07T02:43:23;98030.97;;;16.19;65.54
55418;BME280;41287;47.554;7.844;2022-12-07T02:45:51;98029.84;;;16.20;65.66
55418;BME280;41287;47.554;7.844;2022-12-07T02:48:18;98046.88;;;16.20;65.48
55418;BME280;41287;47.554;7.844;2022-12-07T02:50:49;98035.25;;;16.20;65.59
55418;BME280;41287;47.554;7.844;2022-12-07T02:53:35;98040.97;;;16.18;65.69
55418;BME280;41287;47.554;7.844;2022-12-07T02:56:16;98037.16;;;16.19;65.51
55418;BME280;41287;47.554;7.844;2022-12-07T02:58:54;98046.88;;;16.20;65.61
55418;BME280;41287;47.554;7.844;2022-12-07T03:01:30;98041.47;;;16.20;65.55
55418;BME280;41287;47.554;7.844;2022-12-07T03:04:06;98043.38;;;16.20;65.65
55418;BME280;41287;47.554;7.844;2022-12-07T03:06:42;98044.16;;;16.20;65.54
55418;BME280;41287;47.554;7.844;2022-12-07T03:09:22;98041.78;;;16.19;65.50
55418;BME280;41287;47.554;7.844;2022-12-07T03:12:04;98033.66;;;16.19;65.55
55418;BME280;41287;47.554;7.844;2022-12-07T03:14:35;98036.06;;;16.20;65.63
55418;BME280;41287;47.554;7.844;2022-12-07T03:17:12;98034.47;;;16.19;65.53
55418;BME280;41287;47.554;7.844;2022-12-07T03:19:40;98034.16;;;16.21;65.64
55418;BME280;41287;47.554;7.844;2022-12-07T03:22:09;98028.75;;;16.21;65.58
55418;BME280;41287;47.554;7.844;2022-12-07T03:24:47;98035.25;;;16.20;65.57
55418;BME280;41287;47.554;7.844;2022-12-07T03:27:36;98032.06;;;16.18;65.61
55418;BME280;41287;47.554;7.844;2022-12-07T03:30:17;98027.94;;;16.20;65.57
55418;BME280;41287;47.554;7.844;2022-12-07T03:32:54;98031.75;;;16.19;65.53
55418;BME280;41287;47.554;7.844;2022-12-07T03:35:24;98036.06;;;16.20;65.48
55418;BME280;41287;47.554;7.844;2022-12-07T03:38:14;98032.06;;;16.18;65.73
55418;BME280;41287;47.554;7.844;2022-12-07T03:43:21;98034.94;;;16.22;65.79
55418;BME280;41287;47.554;7.844;2022-12-07T03:45:59;98038.44;;;16.22;65.75
55418;BME280;41287;47.554;7.844;2022-12-07T03:48:53;98030.97;;;16.19;65.64
55418;BME280;41287;47.554;7.844;2022-12-07T03:57:10;98037.66;;;16.22;65.57
55418;BME280;41287;47.554;7.844;2022-12-07T03:59:37;98043.38;;;16.20;65.59
55418;BME280;41287;47.554;7.844;2022-12-07T04:02:06;98039.88;;;16.19;65.74
55418;BME280;41287;47.554;7.844;2022-12-07T04:04:32;98039.56;;;16.21;65.65
55418;BME280;41287;47.554;7.844;2022-12-07T04:06:58;98039.56;;;16.21;65.94
55418;BME280;41287;47.554;7.844;2022-12-07T04:09:23;98039.56;;;16.21;65.72
55418;BME280;41287;47.554;7.844;2022-12-07T04:11:49;98035.25;;;16.20;65.56
55418;BME280;41287;47.554;7.844;2022-12-07T04:14:16;98036.06;;;16.20;65.67
55418;BME280;41287;47.554;7.844;2022-12-07T04:16:49;98033.34;;;16.20;65.61
55418;BME280;41287;47.554;7.844;2022-12-07T04:19:15;98027.63;;;16.22;65.67
55418;BME280;41287;47.554;7.844;2022-12-07T04:21:42;98033.34;;;16.20;65.69
55418;BME280;41287;47.554;7.844;2022-12-07T04:24:07;98027.94;;;16.20;65.57
55418;BME280;41287;47.554;7.844;2022-12-07T04:26:33;98021.75;;;16.20;65.55
55418;BME280;41287;47.554;7.844;2022-12-07T04:28:58;98019.84;;;16.20;65.69
55418;BME280;41287;47.554;7.844;2022-12-07T04:31:24;98025.25;;;16.20;65.72
55418;BME280;41287;47.554;7.844;2022-12-07T04:33:49;98014.44;;;16.20;65.57
55418;BME280;41287;47.554;7.844;2022-12-07T04:36:14;98017.13;;;16.20;65.59
55418;BME280;41287;47.554;7.844;2022-12-07T04:38:40;98021.44;;;16.22;65.52
55418;BME280;41287;47.554;7.844;2022-12-07T04:41:06;98019.84;;;16.20;65.63
55418;BME280;41287;47.554;7.844;2022-12-07T04:43:33;98017.13;;;16.20;65.48
55418;BME280;41287;47.554;7.844;2022-12-07T04:45:58;98013.31;;;16.22;65.57
55418;BME280;41287;47.554;7.844;2022-12-07T04:48:23;98017.94;;;16.21;65.65
55418;BME280;41287;47.554;7.844;2022-12-07T04:50:49;98015.22;;;16.21;65.49
55418;BME280;41287;47.554;7.844;2022-12-07T04:53:15;98017.94;;;16.21;65.61
55418;BME280;41287;47.554;7.844;2022-12-07T04:55:42;98014.44;;;16.20;65.49
55418;BME280;41287;47.554;7.844;2022-12-07T04:58:07;98014.44;;;16.20;65.66
55418;BME280;41287;47.554;7.844;2022-12-07T05:00:33;98007.13;;;16.21;65.52
55418;BME280;41287;47.554;7.844;2022-12-07T05:02:58;98014.44;;;16.20;65.57
55418;BME280;41287;47.554;7.844;2022-12-07T05:05:23;98017.94;;;16.21;65.52
55418;BME280;41287;47.554;7.844;2022-12-07T05:07:51;98026.03;;;16.21;65.69
55418;BME280;41287;47.554;7.844;2022-12-07T05:10:19;98026.03;;;16.21;65.47
55418;BME280;41287;47.554;7.844;2022-12-07T05:12:44;98022.53;;;16.20;65.49
55418;BME280;41287;47.554;7.844;2022-12-07T05:15:11;98021.75;;;16.20;65.64
55418;BME280;41287;47.554;7.844;2022-12-07T05:17:37;98022.53;;;16.20;65.79
55418;BME280;41287;47.554;7.844;2022-12-07T05:20:03;98017.13;;;16.20;65.35
55418;BME280;41287;47.554;7.844;2022-12-07T05:22:29;98024.94;;;16.22;65.93
55418;BME280;41287;47.554;7.844;2022-12-07T05:24:55;98023.97;;;16.27;66.53
55418;BME280;41287;47.554;7.844;2022-12-07T05:27:20;98022.06;;;16.36;66.67
55418;BME280;41287;47.554;7.844;2022-12-07T05:29:46;98027.59;;;16.39;66.61
55418;BME280;41287;47.554;7.844;2022-12-07T05:32:13;98023.97;;;16.44;66.52
55418;BME280;41287;47.554;7.844;2022-12-07T05:34:38;98027.13;;;16.46;66.62
55418;BME280;41287;47.554;7.844;2022-12-07T05:37:04;98014.88;;;16.48;66.77
55418;BME280;41287;47.554;7.844;2022-12-07T05:39:29;98019.63;;;16.51;67.25
55418;BME280;41287;47.554;7.844;2022-12-07T05:41:54;98017.41;;;16.53;67.78
55418;BME280;41287;47.554;7.844;2022-12-07T05:44:44;98020.59;;;16.55;68.80
55418;BME280;41287;47.554;7.844;2022-12-07T05:47:11;98015.66;;;16.57;69.31
55418;BME280;41287;47.554;7.844;2022-12-07T05:49:37;98024.25;;;16.59;69.86
55418;BME280;41287;47.554;7.844;2022-12-07T05:52:03;98020.44;;;16.61;70.48
55418;BME280;41287;47.554;7.844;2022-12-07T05:54:28;98021.41;;;16.65;70.89
55418;BME280;41287;47.554;7.844;2022-12-07T05:56:54;98026.16;;;16.68;71.26
55418;BME280;41287;47.554;7.844;2022-12-07T05:59:19;98032.38;;;16.68;71.77
55418;BME280;41287;47.554;7.844;2022-12-07T06:01:48;98032.53;;;16.72;72.83
55418;BME280;41287;47.554;7.844;2022-12-07T06:04:14;98028.38;;;16.74;73.21
55418;BME280;41287;47.554;7.844;2022-12-07T06:06:39;98026.78;;;16.73;72.96
55418;BME280;41287;47.554;7.844;2022-12-07T06:09:06;98027.13;;;16.72;72.27
55418;BME280;41287;47.554;7.844;2022-12-07T06:11:31;98025.06;;;16.69;71.58
55418;BME280;41287;47.554;7.844;2022-12-07T06:14:16;98030.78;;;16.67;70.90
55418;BME280;41287;47.554;7.844;2022-12-07T06:16:47;98026.03;;;16.64;70.51
55418;BME280;41287;47.554;7.844;2022-12-07T06:19:12;98036.06;;;16.64;70.35
55418;BME280;41287;47.554;7.844;2022-12-07T06:21:37;98029.66;;;16.59;70.07
55418;BME280;41287;47.554;7.844;2022-12-07T06:24:03;98030.47;;;16.60;69.81
55418;BME280;41287;47.554;7.844;2022-12-07T06:26:30;98030.00;;;16.58;69.29
55418;BME280;41287;47.554;7.844;2022-12-07T06:28:57;98004.84;;;16.57;68.29
55418;BME280;41287;47.554;7.844;2022-12-07T06:31:22;98018.69;;;16.56;68.10
55418;BME280;41287;47.554;7.844;2022-12-07T06:33:48;98030.63;;;16.55;68.14
55418;BME280;41287;47.554;7.844;2022-12-07T06:36:13;98032.53;;;16.54;67.74
55418;BME280;41287;47.554;7.844;2022-12-07T06:38:39;98032.53;;;16.54;67.71
55418;BME280;41287;47.554;7.844;2022-12-07T06:41:05;98026.31;;;16.54;67.51
55418;BME280;41287;47.554;7.844;2022-12-07T06:43:30;98022.81;;;16.53;67.55
55418;BME280;41287;47.554;7.844;2022-12-07T06:45:57;98027.44;;;16.53;67.47
55418;BME280;41287;47.554;7.844;2022-12-07T06:48:25;98032.84;;;16.53;67.00
55418;BME280;41287;47.554;7.844;2022-12-07T06:50:50;98034.75;;;16.52;67.31
55418;BME280;41287;47.554;7.844;2022-12-07T06:53:17;98031.25;;;16.52;67.33
55418;BME280;41287;47.554;7.844;2022-12-07T06:55:44;98031.59;;;16.50;67.20
55418;BME280;41287;47.554;7.844;2022-12-07T06:58:10;98030.78;;;16.50;67.24
55418;BME280;41287;47.554;7.844;2022-12-07T07:00:35;98021.56;;;16.51;67.19
55418;BME280;41287;47.554;7.844;2022-12-07T07:03:01;98021.09;;;16.49;67.35
55418;BME280;41287;47.554;7.844;2022-12-07T07:05:28;98025.69;;;16.48;67.15
55418;BME280;41287;47.554;7.844;2022-12-07T07:07:55;98029.19;;;16.49;67.09
55418;BME280;41287;47.554;7.844;2022-12-07T07:10:20;98030.78;;;16.50;67.07
55418;BME280;41287;47.554;7.844;2022-12-07T07:12:46;98033.81;;;16.48;67.11
55418;BME280;41287;47.554;7.844;2022-12-07T07:15:11;98031.09;;;16.48;67.14
55418;BME280;41287;47.554;7.844;2022-12-07T07:17:37;98030.31;;;16.48;67.06
55418;BME280;41287;47.554;7.844;2022-12-07T07:20:03;98034.13;;;16.47;67.04
55418;BME280;41287;47.554;7.844;2022-12-07T07:22:29;98045.75;;;16.47;67.11
55418;BME280;41287;47.554;7.844;2022-12-07T07:24:54;98036.84;;;16.47;67.31
55418;BME280;41287;47.554;7.844;2022-12-07T07:27:19;98040.34;;;16.47;67.11
55418;BME280;41287;47.554;7.844;2022-12-07T07:29:45;98048.44;;;16.47;67.10
55418;BME280;41287;47.554;7.844;2022-12-07T07:32:10;98050.34;;;16.47;67.03
55418;BME280;41287;47.554;7.844;2022-12-07T07:34:35;98049.56;;;16.46;67.03
55418;BME280;41287;47.554;7.844;2022-12-07T07:37:01;98046.06;;;16.46;67.25
55418;BME280;41287;47.554;7.844;2022-12-07T07:39:26;98047.97;;;16.45;67.09
55418;BME280;41287;47.554;7.844;2022-12-07T07:41:53;98060.69;;;16.45;66.99
55418;BME280;41287;47.554;7.844;2022-12-07T07:44:20;98061.81;;;16.44;67.12
55418;BME280;41287;47.554;7.844;2022-12-07T07:46:46;98059.13;;;16.44;66.97
55418;BME280;41287;47.554;7.844;2022-12-07T07:49:11;98061.81;;;16.44;66.99
55418;BME280;41287;47.554;7.844;2022-12-07T07:51:37;98064.53;;;16.44;66.95
55418;BME280;41287;47.554;7.844;2022-12-07T07:54:02;98064.53;;;16.44;66.98
55418;BME280;41287;47.554;7.844;2022-12-07T07:56:28;98069.94;;;16.44;67.13
55418;BME280;41287;47.554;7.844;2022-12-07T07:58:53;98063.72;;;16.43;67.09
55418;BME280;41287;47.554;7.844;2022-12-07T08:01:18;98070.75;;;16.44;66.90
55418;BME280;41287;47.554;7.844;2022-12-07T08:03:45;98071.06;;;16.43;67.06
55418;BME280;41287;47.554;7.844;2022-12-07T08:06:11;98069.16;;;16.43;66.95
55418;BME280;41287;47.554;7.844;2022-12-07T08:08:36;98066.44;;;16.43;66.78
55418;BME280;41287;47.554;7.844;2022-12-07T08:11:05;98069.16;;;16.43;66.99
55418;BME280;41287;47.554;7.844;2022-12-07T08:13:31;98064.84;;;16.42;67.08
55418;BME280;41287;47.554;7.844;2022-12-07T08:15:56;98068.34;;;16.43;67.04
55418;BME280;41287;47.554;7.844;2022-12-07T08:18:21;98072.16;;;16.42;67.31
55418;BME280;41287;47.554;7.844;2022-12-07T08:20:47;98075.66;;;16.42;67.10
55418;BME280;41287;47.554;7.844;2022-12-07T08:23:12;98072.16;;;16.42;67.06
55418;BME280;41287;47.554;7.844;2022-12-07T08:25:38;98065.94;;;16.41;66.85
55418;BME280;41287;47.554;7.844;2022-12-07T08:28:04;98067.06;;;16.40;66.99
55418;BME280;41287;47.554;7.844;2022-12-07T08:30:31;98074.06;;;16.41;66.91
55418;BME280;41287;47.554;7.844;2022-12-07T08:32:57;98065.94;;;16.41;66.93
55418;BME280;41287;47.554;7.844;2022-12-07T08:35:23;98067.06;;;16.40;66.89
55418;BME280;41287;47.554;7.844;2022-12-07T08:37:48;98069.78;;;16.40;66.92
55418;BME280;41287;47.554;7.844;2022-12-07T08:40:14;98075.19;;;16.40;66.83
55418;BME280;41287;47.554;7.844;2022-12-07T08:42:50;98069.78;;;16.40;66.85
55418;BME280;41287;47.554;7.844;2022-12-07T08:45:18;98075.97;;;16.41;66.93
55418;BME280;41287;47.554;7.844;2022-12-07T08:47:50;98074.38;;;16.40;66.98
55418;BME280;41287;47.554;7.844;2022-12-07T08:50:19;98081.38;;;16.41;67.00
55418;BME280;41287;47.554;7.844;2022-12-07T08:52:48;98083.28;;;16.40;67.01
55418;BME280;41287;47.554;7.844;2022-12-07T08:55:16;98084.09;;;16.41;67.01
55418;BME280;41287;47.554;7.844;2022-12-07T08:57:43;98084.41;;;16.39;66.86
55418;BME280;41287;47.554;7.844;2022-12-07T09:00:09;98083.59;;;16.39;66.83
55418;BME280;41287;47.554;7.844;2022-12-07T09:02:36;98087.09;;;16.39;67.01
55418;BME280;41287;47.554;7.844;2022-12-07T09:05:02;98089.00;;;16.39;67.06
55418;BME280;41287;47.554;7.844;2022-12-07T09:07:30;98094.41;;;16.39;66.88
55418;BME280;41287;47.554;7.844;2022-12-07T09:09:58;98099.03;;;16.38;67.02
55418;BME280;41287;47.554;7.844;2022-12-07T09:12:23;98098.72;;;16.40;66.93
55418;BME280;41287;47.554;7.844;2022-12-07T09:14:49;98097.13;;;16.39;66.86
55418;BME280;41287;47.554;7.844;2022-12-07T09:17:14;98103.31;;;16.39;66.79
55418;BME280;41287;47.554;7.844;2022-12-07T09:19:40;98097.13;;;16.39;66.93
55418;BME280;41287;47.554;7.844;2022-12-07T09:22:09;98103.31;;;16.39;67.00
55418;BME280;41287;47.554;7.844;2022-12-07T09:24:36;98104.44;;;16.38;66.91
55418;BME280;41287;47.554;7.844;2022-12-07T09:27:01;98101.72;;;16.38;66.88
55418;BME280;41287;47.554;7.844;2022-12-07T09:29:26;98105.22;;;16.39;66.90
55418;BME280;41287;47.554;7.844;2022-12-07T09:31:52;98104.44;;;16.38;67.08
55418;BME280;41287;47.554;7.844;2022-12-07T09:34:18;98101.72;;;16.38;66.95
55418;BME280;41287;47.554;7.844;2022-12-07T09:36:43;98108.28;;;16.37;66.85
55418;BME280;41287;47.554;7.844;2022-12-07T09:39:09;98103.63;;;16.38;66.63
55418;BME280;41287;47.554;7.844;2022-12-07T09:41:38;98048.78;;;16.37;66.75
55418;BME280;41287;47.554;7.844;2022-12-07T09:44:07;98046.09;;;16.37;66.63
55418;BME280;41287;47.554;7.844;2022-12-07T09:46:36;98051.50;;;16.37;66.58
55418;BME280;41287;47.554;7.844;2022-12-07T09:49:04;98056.09;;;16.37;66.64
55418;BME280;41287;47.554;7.844;2022-12-07T09:51:30;98048.00;;;16.37;66.59
55418;BME280;41287;47.554;7.844;2022-12-07T09:53:57;98050.69;;;16.37;66.61
55418;BME280;41287;47.554;7.844;2022-12-07T09:56:23;98054.50;;;16.36;66.50
55418;BME280;41287;47.554;7.844;2022-12-07T09:58:54;98057.22;;;16.36;66.43
55418;BME280;41287;47.554;7.844;2022-12-07T10:01:23;98052.13;;;16.34;66.60
55418;BME280;41287;47.554;7.844;2022-12-07T10:04:14;98046.41;;;16.36;66.40
55418;BME280;41287;47.554;7.844;2022-12-07T10:06:41;98045.28;;;16.37;66.26
55418;BME280;41287;47.554;7.844;2022-12-07T10:09:14;98040.19;;;16.35;66.39
55418;BME280;41287;47.554;7.844;2022-12-07T10:12:05;98033.50;;;16.33;66.47
55418;BME280;41287;47.554;7.844;2022-12-07T10:14:34;98055.63;;;16.35;66.21
55418;BME280;41287;47.554;7.844;2022-12-07T10:17:00;98050.22;;;16.35;66.36
55418;BME280;41287;47.554;7.844;2022-12-07T10:19:30;98056.72;;;16.34;66.46
55418;BME280;41287;47.554;7.844;2022-12-07T10:22:16;98046.22;;;16.32;66.43
55418;BME280;41287;47.554;7.844;2022-12-07T10:24:43;98042.41;;;16.33;66.15
55418;BME280;41287;47.554;7.844;2022-12-07T10:27:26;98038.91;;;16.33;66.31
55418;BME280;41287;47.554;7.844;2022-12-07T10:29:52;98037.00;;;16.33;66.38
55418;BME280;41287;47.554;7.844;2022-12-07T10:34:44;98039.72;;;16.33;66.30
55418;BME280;41287;47.554;7.844;2022-12-07T10:42:18;98024.59;;;16.32;66.30
55418;BME280;41287;47.554;7.844;2022-12-07T10:44:44;98033.50;;;16.33;66.31
55418;BME280;41287;47.554;7.844;2022-12-07T10:47:22;98021.88;;;16.32;66.31
55418;BME280;41287;47.554;7.844;2022-12-07T10:58:15;98046.56;;;16.31;66.22
55418;BME280;41287;47.554;7.844;2022-12-07T11:03:37;98044.31;;;16.33;66.36
55418;BME280;41287;47.554;7.844;2022-12-07T11:06:16;98041.16;;;16.31;66.33
55418;BME280;41287;47.554;7.844;2022-12-07T11:11:38;98036.53;;;16.31;66.13
55418;BME280;41287;47.554;7.844;2022-12-07T11:14:25;98039.22;;;16.31;66.28
55418;BME280;41287;47.554;7.844;2022-12-07T11:17:05;98031.09;;;16.31;66.18
55418;BME280;41287;47.554;7.844;2022-12-07T11:22:29;98031.09;;;16.31;66.32
55418;BME280;41287;47.554;7.844;2022-12-07T11:25:18;98023.00;;;16.31;66.15
55418;BME280;41287;47.554;7.844;2022-12-07T11:30:34;98019.03;;;16.29;66.29
55418;BME280;41287;47.554;7.844;2022-12-07T11:38:25;97997.91;;;16.31;66.42
55418;BME280;41287;47.554;7.844;2022-12-07T11:40:59;98000.91;;;16.29;66.35
55418;BME280;41287;47.554;7.844;2022-12-07T11:46:28;97991.69;;;16.30;66.41
55418;BME280;41287;47.554;7.844;2022-12-07T11:49:04;97990.56;;;16.31;66.28
55418;BME280;41287;47.554;7.844;2022-12-07T11:51:36;97983.25;;;16.32;66.47
55418;BME280;41287;47.554;7.844;2022-12-07T11:54:20;97982.78;;;16.30;66.50
55418;BME280;41287;47.554;7.844;2022-12-07T11:56:48;97984.38;;;16.31;66.39
55418;BME280;41287;47.554;7.844;2022-12-07T11:59:27;97982.78;;;16.30;66.35
55418;BME280;41287;47.554;7.844;2022-12-07T12:02:08;97980.09;;;16.30;66.58
55418;BME280;41287;47.554;7.844;2022-12-07T12:07:16;97971.97;;;16.30;66.43
55418;BME280;41287;47.554;7.844;2022-12-07T12:09:51;97970.06;;;16.30;66.51
55418;BME280;41287;47.554;7.844;2022-12-07T12:20:20;97946.03;;;16.29;66.44
55418;BME280;41287;47.554;7.844;2022-12-07T12:23:04;97947.94;;;16.28;66.71
55418;BME280;41287;47.554;7.844;2022-12-07T12:25:38;97952.25;;;16.29;66.61
55418;BME280;41287;47.554;7.844;2022-12-07T12:28:05;97946.84;;;16.29;66.62
55418;BME280;41287;47.554;7.844;2022-12-07T12:30:39;97952.56;;;16.28;66.57
55418;BME280;41287;47.554;7.844;2022-12-07T12:33:25;97946.34;;;16.27;66.49
55418;BME280;41287;47.554;7.844;2022-12-07T12:46:57;97930.94;;;16.28;66.44
55418;BME280;41287;47.554;7.844;2022-12-07T12:52:53;97933.31;;;16.29;66.58
55418;BME280;41287;47.554;7.844;2022-12-07T12:55:12;97923.94;;;16.27;66.58
55418;BME280;41287;47.554;7.844;2022-12-07T12:57:39;97924.41;;;16.29;66.43
55418;BME280;41287;47.554;7.844;2022-12-07T13:02:53;97926.31;;;16.28;66.50
55418;BME280;41287;47.554;7.844;2022-12-07T13:05:26;97920.13;;;16.28;66.68
55418;BME280;41287;47.554;7.844;2022-12-07T13:08:17;97913.91;;;16.27;66.60
55418;BME280;41287;47.554;7.844;2022-12-07T13:10:43;97917.91;;;16.30;66.53
55418;BME280;41287;47.554;7.844;2022-12-07T13:16:35;97900.41;;;16.27;66.44
55418;BME280;41287;47.554;7.844;2022-12-07T13:18:40;97905.50;;;16.29;66.62
55418;BME280;41287;47.554;7.844;2022-12-07T13:26:20;97898.50;;;16.28;66.71
55418;BME280;41287;47.554;7.844;2022-12-07T13:28:48;97900.88;;;16.29;66.49
55418;BME280;41287;47.554;7.844;2022-12-07T13:33:46;97898.50;;;16.28;66.70
55418;BME280;41287;47.554;7.844;2022-12-07T13:36:23;97884.50;;;16.26;66.51
55418;BME280;41287;47.554;7.844;2022-12-07T13:39:00;97884.19;;;16.27;66.30
55418;BME280;41287;47.554;7.844;2022-12-07T13:41:37;97884.97;;;16.28;66.27
55418;BME280;41287;47.554;7.844;2022-12-07T13:44:16;97892.28;;;16.27;66.37
55418;BME280;41287;47.554;7.844;2022-12-07T13:49:25;97882.59;;;16.26;66.37
55418;BME280;41287;47.554;7.844;2022-12-07T13:51:51;97876.06;;;16.27;66.43
55418;BME280;41287;47.554;7.844;2022-12-07T13:54:17;97869.06;;;16.26;66.28
55418;BME280;41287;47.554;7.844;2022-12-07T13:56:43;97870.66;;;16.27;66.59
55418;BME280;41287;47.554;7.844;2022-12-07T13:59:29;97877.50;;;16.25;66.47
55418;BME280;41287;47.554;7.844;2022-12-07T14:01:58;97878.78;;;16.27;66.40
55418;BME280;41287;47.554;7.844;2022-12-07T14:04:31;97873.69;;;16.26;66.42
55418;BME280;41287;47.554;7.844;2022-12-07T14:06:56;97869.88;;;16.27;66.34
55418;BME280;41287;47.554;7.844;2022-12-07T14:09:25;97873.38;;;16.27;66.21
55418;BME280;41287;47.554;7.844;2022-12-07T14:11:52;97872.56;;;16.27;66.35
55418;BME280;41287;47.554;7.844;2022-12-07T14:14:30;97865.56;;;16.26;66.36
55418;BME280;41287;47.554;7.844;2022-12-07T14:17:12;97862.88;;;16.26;66.44
55418;BME280;41287;47.554;7.844;2022-12-07T14:20:00;97863.97;;;16.25;66.40
55418;BME280;41287;47.554;7.844;2022-12-07T14:24:59;97868.28;;;16.26;66.45
55418;BME280;41287;47.554;7.844;2022-12-07T14:27:24;97871.47;;;16.28;66.50
55418;BME280;41287;47.554;7.844;2022-12-07T14:29:56;97863.66;;;16.26;66.44
55418;BME280;41287;47.554;7.844;2022-12-07T14:32:24;97860.97;;;16.26;66.41
55418;BME280;41287;47.554;7.844;2022-12-07T14:35:11;97864.78;;;16.25;66.46
55418;BME280;41287;47.554;7.844;2022-12-07T14:37:40;97864.47;;;16.27;66.35
55418;BME280;41287;47.554;7.844;2022-12-07T14:40:09;97867.16;;;16.27;66.36
55418;BME280;41287;47.554;7.844;2022-12-07T14:42:37;97859.06;;;16.27;66.42
55418;BME280;41287;47.554;7.844;2022-12-07T14:45:03;97859.84;;;16.27;66.52
55418;BME280;41287;47.554;7.844;2022-12-07T14:47:28;97861.75;;;16.27;66.54
55418;BME280;41287;47.554;7.844;2022-12-07T14:49:54;97863.66;;;16.26;66.43